sensor_id;sensor_type;location;lat;lon;timestamp;pressure;altitude;pressure_sealevel;temperature;humidity
4814;BME280;15375;48.540;9.268;2023-01-27T00:00:04;97514.00;;;-1.65;100.00
4814;BME280;15375;48.540;9.268;2023-01-27T00:02:30;97500.19;;;-1.67;100.00
4814;BME280;15375;48.540;9.268;2023-01-27T00:04:56;97491.28;;;-1.71;100.00
4814;BME280;15375;48.540;9.268;2023-01-27T00:07:21;97518.25;;;-1.52;100.00
4814;BME280;15375;48.540;9.268;2023-01-27T00:09:46;97492.59;;;-1.65;100.00
4814;BME280;15375;48.540;9.268;2023-01-27T00:12:20;97517.78;;;-1.42;100.00
4814;BME280;15375;48.540;9.268;2023-01-27T00:15:05;97489.03;;;-1.57;100.00
4814;BME280;15375;48.540;9.268;2023-01-27T00:17:30;97526.03;;;-1.47;100.00
4814;BME280;15375;48.540;9.268;2023-01-27T00:19:56;97493.28;;;-1.56;100.00
4814;BME280;15375;48.540;9.268;2023-01-27T00:22:21;97476.56;;;-1.77;100.00
4814;BME280;15375;48.540;9.268;2023-01-27T00:25:06;97499.63;;;-1.61;100.00
4814;BME280;15375;48.540;9.268;2023-01-27T00:27:31;97512.22;;;-1.61;100.00
4814;BME280;15375;48.540;9.268;2023-01-27T00:29:57;97467.53;;;-1.85;100.00
4814;BME280;15375;48.540;9.268;2023-01-27T00:32:22;97494.19;;;-1.64;100.00
4814;BME280;15375;48.540;9.268;2023-01-27T00:35:06;97511.09;;;-1.60;100.00
4814;BME280;15375;48.540;9.268;2023-01-27T00:37:32;97469.97;;;-1.92;100.00
4814;BME280;15375;48.540;9.268;2023-01-27T00:39:57;97486.13;;;-1.88;100.00
4814;BME280;15375;48.540;9.268;2023-01-27T00:42:22;97477.88;;;-1.96;100.00
4814;BME280;15375;48.540;9.268;2023-01-27T00:44:48;97482.13;;;-1.82;100.00
4814;BME280;15375;48.540;9.268;2023-01-27T00:47:32;97506.31;;;-1.67;100.00
4814;BME280;15375;48.540;9.268;2023-01-27T00:49:58;97484.00;;;-1.83;100.00
4814;BME280;15375;48.540;9.268;2023-01-27T00:52:24;97508.56;;;-1.69;100.00
4814;BME280;15375;48.540;9.268;2023-01-27T00:54:49;97485.59;;;-1.82;100.00
4814;BME280;15375;48.540;9.268;2023-01-27T00:57:15;97463.63;;;-1.87;100.00
4814;BME280;15375;48.540;9.268;2023-01-27T00:59:40;97467.31;;;-1.92;100.00
4814;BME280;15375;48.540;9.268;2023-01-27T01:02:05;97510.44;;;-1.69;100.00
4814;BME280;15375;48.540;9.268;2023-01-27T01:04:31;97488.59;;;-1.71;100.00
4814;BME280;15375;48.540;9.268;2023-01-27T01:06:56;97475.44;;;-1.88;100.00
4814;BME280;15375;48.540;9.268;2023-01-27T01:09:21;97470.78;;;-1.91;100.00
4814;BME280;15375;48.540;9.268;2023-01-27T01:11:47;97515.56;;;-1.64;100.00
4814;BME280;15375;48.540;9.268;2023-01-27T01:14:12;97478.22;;;-1.85;100.00
4814;BME280;15375;48.540;9.268;2023-01-27T01:16:37;97513.56;;;-1.67;100.00
4814;BME280;15375;48.540;9.268;2023-01-27T01:19:03;97488.47;;;-1.87;100.00
4814;BME280;15375;48.540;9.268;2023-01-27T01:21:28;97523.16;;;-1.66;100.00
4814;BME280;15375;48.540;9.268;2023-01-27T01:23:54;97470.41;;;-2.02;100.00
4814;BME280;15375;48.540;9.268;2023-01-27T01:26:19;97519.78;;;-1.75;100.00
4814;BME280;15375;48.540;9.268;2023-01-27T01:28:45;97542.31;;;-1.64;100.00
4814;BME280;15375;48.540;9.268;2023-01-27T01:31:13;97516.09;;;-1.71;100.00
4814;BME280;15375;48.540;9.268;2023-01-27T01:33:39;97509.31;;;-1.80;100.00
4814;BME280;15375;48.540;9.268;2023-01-27T01:36:11;97499.06;;;-1.78;100.00
4814;BME280;15375;48.540;9.268;2023-01-27T01:38:37;97498.16;;;-1.82;100.00
4814;BME280;15375;48.540;9.268;2023-01-27T01:41:04;97468.75;;;-1.95;100.00
4814;BME280;15375;48.540;9.268;2023-01-27T01:43:29;97479.66;;;-1.87;100.00
4814;BME280;15375;48.540;9.268;2023-01-27T01:45:59;97517.09;;;-1.63;100.00
4814;BME280;15375;48.540;9.268;2023-01-27T01:48:30;97529.28;;;-1.54;100.00
4814;BME280;15375;48.540;9.268;2023-01-27T01:53:35;97514.56;;;-1.72;100.00
4814;BME280;15375;48.540;9.268;2023-01-27T01:56:05;97484.34;;;-1.84;100.00
4814;BME280;15375;48.540;9.268;2023-01-27T01:58:34;97482.44;;;-1.96;100.00
4814;BME280;15375;48.540;9.268;2023-01-27T02:01:02;97518.69;;;-1.62;100.00
4814;BME280;15375;48.540;9.268;2023-01-27T02:03:28;97490.81;;;-1.73;100.00
4814;BME280;15375;48.540;9.268;2023-01-27T02:05:54;97485.69;;;-1.78;100.00
4814;BME280;15375;48.540;9.268;2023-01-27T02:08:24;97508.44;;;-1.60;100.00
4814;BME280;15375;48.540;9.268;2023-01-27T02:10:52;97509.78;;;-1.54;100.00
4814;BME280;15375;48.540;9.268;2023-01-27T02:13:19;97479.22;;;-1.77;100.00
4814;BME280;15375;48.540;9.268;2023-01-27T02:15:44;97518.25;;;-1.52;100.00
4814;BME280;15375;48.540;9.268;2023-01-27T02:18:11;97469.41;;;-1.73;100.00
4814;BME280;15375;48.540;9.268;2023-01-27T02:20:43;97510.88;;;-1.55;100.00
4814;BME280;15375;48.540;9.268;2023-01-27T02:26:02;97501.19;;;-1.60;100.00
4814;BME280;15375;48.540;9.268;2023-01-27T02:28:30;97498.16;;;-1.70;100.00
4814;BME280;15375;48.540;9.268;2023-01-27T02:30:56;97490.81;;;-1.73;100.00
4814;BME280;15375;48.540;9.268;2023-01-27T02:33:22;97508.31;;;-1.64;100.00
4814;BME280;15375;48.540;9.268;2023-01-27T02:35:55;97501.06;;;-1.63;100.00
4814;BME280;15375;48.540;9.268;2023-01-27T02:38:22;97490.81;;;-1.73;100.00
4814;BME280;15375;48.540;9.268;2023-01-27T02:40:51;97487.59;;;-1.79;100.00
4814;BME280;15375;48.540;9.268;2023-01-27T02:43:18;97487.38;;;-1.74;100.00
4814;BME280;15375;48.540;9.268;2023-01-27T02:45:45;97474.66;;;-1.77;100.00
4814;BME280;15375;48.540;9.268;2023-01-27T02:48:11;97490.94;;;-1.70;100.00
4814;BME280;15375;48.540;9.268;2023-01-27T02:50:37;97483.69;;;-1.81;100.00
4814;BME280;15375;48.540;9.268;2023-01-27T02:53:02;97461.75;;;-1.99;100.00
4814;BME280;15375;48.540;9.268;2023-01-27T02:55:27;97467.66;;;-1.81;100.00
4814;BME280;15375;48.540;9.268;2023-01-27T02:57:53;97477.00;;;-1.75;100.00
4814;BME280;15375;48.540;9.268;2023-01-27T03:00:18;97466.09;;;-1.70;100.00
4814;BME280;15375;48.540;9.268;2023-01-27T03:02:44;97446.03;;;-1.88;100.00
4814;BME280;15375;48.540;9.268;2023-01-27T03:05:09;97464.84;;;-1.61;100.00
4814;BME280;15375;48.540;9.268;2023-01-27T03:07:35;97475.09;;;-1.51;100.00
4814;BME280;15375;48.540;9.268;2023-01-27T03:10:00;97478.78;;;-1.43;100.00
4814;BME280;15375;48.540;9.268;2023-01-27T03:12:25;97482.66;;;-1.41;100.00
4814;BME280;15375;48.540;9.268;2023-01-27T03:14:51;97484.81;;;-1.46;100.00
4814;BME280;15375;48.540;9.268;2023-01-27T03:17:36;97489.81;;;-1.45;100.00
4814;BME280;15375;48.540;9.268;2023-01-27T03:20:20;97490.94;;;-1.46;100.00
4814;BME280;15375;48.540;9.268;2023-01-27T03:22:47;97500.97;;;-1.43;100.00
4814;BME280;15375;48.540;9.268;2023-01-27T03:25:13;97488.16;;;-1.37;100.00
4814;BME280;15375;48.540;9.268;2023-01-27T03:27:38;97487.25;;;-1.53;100.00
4814;BME280;15375;48.540;9.268;2023-01-27T03:30:05;97463.41;;;-1.70;100.00
4814;BME280;15375;48.540;9.268;2023-01-27T03:32:31;97470.31;;;-1.57;100.00
4814;BME280;15375;48.540;9.268;2023-01-27T03:34:57;97488.59;;;-1.47;100.00
4814;BME280;15375;48.540;9.268;2023-01-27T03:37:30;97490.25;;;-1.43;100.00
4814;BME280;15375;48.540;9.268;2023-01-27T03:40:16;97473.66;;;-1.60;100.00
4814;BME280;15375;48.540;9.268;2023-01-27T03:43:00;97481.91;;;-1.65;100.00
4814;BME280;15375;48.540;9.268;2023-01-27T03:45:47;97489.50;;;-1.67;100.00
4814;BME280;15375;48.540;9.268;2023-01-27T03:48:32;97490.94;;;-1.58;100.00
4814;BME280;15375;48.540;9.268;2023-01-27T03:50:58;97508.19;;;-1.55;100.00
4814;BME280;15375;48.540;9.268;2023-01-27T03:53:24;97472.88;;;-1.73;100.00
4814;BME280;15375;48.540;9.268;2023-01-27T03:55:50;97479.56;;;-1.79;100.00
4814;BME280;15375;48.540;9.268;2023-01-27T03:58:26;97497.16;;;-1.66;100.00
4814;BME280;15375;48.540;9.268;2023-01-27T04:01:16;97504.97;;;-1.61;100.00
4814;BME280;15375;48.540;9.268;2023-01-27T04:03:43;97488.13;;;-1.73;100.00
4814;BME280;15375;48.540;9.268;2023-01-27T04:06:30;97494.63;;;-1.74;100.00
4814;BME280;15375;48.540;9.268;2023-01-27T04:09:26;97478.22;;;-1.85;100.00
4814;BME280;15375;48.540;9.268;2023-01-27T04:11:52;97498.28;;;-1.55;100.00
4814;BME280;15375;48.540;9.268;2023-01-27T04:14:25;97507.41;;;-1.56;100.00
4814;BME280;15375;48.540;9.268;2023-01-27T04:16:52;97459.63;;;-1.81;100.00
4814;BME280;15375;48.540;9.268;2023-01-27T04:19:18;97453.81;;;-1.83;100.00
4814;BME280;15375;48.540;9.268;2023-01-27T04:21:44;97448.38;;;-1.87;100.00
4814;BME280;15375;48.540;9.268;2023-01-27T04:24:14;97479.13;;;-1.69;100.00
4814;BME280;15375;48.540;9.268;2023-01-27T04:26:48;97477.56;;;-1.70;100.00
4814;BME280;15375;48.540;9.268;2023-01-27T04:29:14;97462.97;;;-1.84;100.00
4814;BME280;15375;48.540;9.268;2023-01-27T04:31:40;97485.72;;;-1.66;100.00
4814;BME280;15375;48.540;9.268;2023-01-27T04:34:07;97513.56;;;-1.55;100.00
4814;BME280;15375;48.540;9.268;2023-01-27T04:36:33;97469.41;;;-1.73;100.00
4814;BME280;15375;48.540;9.268;2023-01-27T04:38:58;97491.72;;;-1.57;100.00
4814;BME280;15375;48.540;9.268;2023-01-27T04:41:23;97453.28;;;-1.77;100.00
4814;BME280;15375;48.540;9.268;2023-01-27T04:43:49;97485.16;;;-1.60;100.00
4814;BME280;15375;48.540;9.268;2023-01-27T04:46:14;97464.63;;;-1.68;100.00
4814;BME280;15375;48.540;9.268;2023-01-27T04:48:39;97475.91;;;-1.62;100.00
4814;BME280;15375;48.540;9.268;2023-01-27T04:51:05;97480.34;;;-1.54;100.00
4814;BME280;15375;48.540;9.268;2023-01-27T04:53:30;97500.09;;;-1.47;100.00
4814;BME280;15375;48.540;9.268;2023-01-27T04:56:02;97502.19;;;-1.40;100.00
4814;BME280;15375;48.540;9.268;2023-01-27T04:58:28;97489.91;;;-1.53;100.00
4814;BME280;15375;48.540;9.268;2023-01-27T05:00:53;97473.00;;;-1.69;100.00
4814;BME280;15375;48.540;9.268;2023-01-27T05:03:18;97469.19;;;-1.80;100.00
4814;BME280;15375;48.540;9.268;2023-01-27T05:05:44;97505.66;;;-1.64;100.00
4814;BME280;15375;48.540;9.268;2023-01-27T05:08:09;97502.72;;;-1.71;100.00
4814;BME280;15375;48.540;9.268;2023-01-27T05:10:35;97486.81;;;-1.79;100.00
4814;BME280;15375;48.540;9.268;2023-01-27T05:13:01;97523.47;;;-1.68;100.00
4814;BME280;15375;48.540;9.268;2023-01-27T05:15:27;97485.44;;;-1.98;100.00
4814;BME280;15375;48.540;9.268;2023-01-27T05:17:53;97493.91;;;-1.96;100.00
4814;BME280;15375;48.540;9.268;2023-01-27T05:20:19;97510.66;;;-1.86;100.00
4814;BME280;15375;48.540;9.268;2023-01-27T05:22:44;97506.84;;;-1.85;100.00
4814;BME280;15375;48.540;9.268;2023-01-27T05:25:13;97520.22;;;-1.73;100.00
4814;BME280;15375;48.540;9.268;2023-01-27T05:27:38;97496.13;;;-1.98;100.00
4814;BME280;15375;48.540;9.268;2023-01-27T05:30:04;97498.81;;;-1.98;100.00
4814;BME280;15375;48.540;9.268;2023-01-27T05:32:30;97491.13;;;-1.99;100.00
4814;BME280;15375;48.540;9.268;2023-01-27T05:34:58;97515.41;;;-1.92;100.00
4814;BME280;15375;48.540;9.268;2023-01-27T05:37:23;97511.06;;;-1.97;100.00
4814;BME280;15375;48.540;9.268;2023-01-27T05:39:49;97476.84;;;-2.15;100.00
4814;BME280;15375;48.540;9.268;2023-01-27T05:42:14;97479.66;;;-2.12;100.00
4814;BME280;15375;48.540;9.268;2023-01-27T05:44:39;97478.94;;;-2.21;100.00
4814;BME280;15375;48.540;9.268;2023-01-27T05:47:05;97500.88;;;-2.15;100.00
4814;BME280;15375;48.540;9.268;2023-01-27T05:49:30;97516.63;;;-2.02;100.00
4814;BME280;15375;48.540;9.268;2023-01-27T05:51:56;97511.28;;;-2.02;100.00
4814;BME280;15375;48.540;9.268;2023-01-27T05:54:21;97513.03;;;-2.06;100.00
4814;BME280;15375;48.540;9.268;2023-01-27T05:56:47;97523.06;;;-2.03;100.00
4814;BME280;15375;48.540;9.268;2023-01-27T05:59:12;97535.38;;;-1.89;100.00
4814;BME280;15375;48.540;9.268;2023-01-27T06:01:38;97545.06;;;-1.73;100.00
4814;BME280;15375;48.540;9.268;2023-01-27T06:04:03;97533.91;;;-1.87;100.00
4814;BME280;15375;48.540;9.268;2023-01-27T06:06:31;97543.19;;;-1.72;100.00
4814;BME280;15375;48.540;9.268;2023-01-27T06:08:57;97528.44;;;-1.90;100.00
4814;BME280;15375;48.540;9.268;2023-01-27T06:11:23;97552.09;;;-1.68;100.00
4814;BME280;15375;48.540;9.268;2023-01-27T06:13:50;97506.84;;;-1.98;100.00
4814;BME280;15375;48.540;9.268;2023-01-27T06:16:17;97532.03;;;-1.74;100.00
4814;BME280;15375;48.540;9.268;2023-01-27T06:18:43;97541.53;;;-1.65;100.00
4814;BME280;15375;48.540;9.268;2023-01-27T06:21:10;97537.63;;;-1.67;100.00
4814;BME280;15375;48.540;9.268;2023-01-27T06:23:36;97522.66;;;-1.80;100.00
4814;BME280;15375;48.540;9.268;2023-01-27T06:26:13;97536.84;;;-1.68;100.00
4814;BME280;15375;48.540;9.268;2023-01-27T06:28:39;97543.75;;;-1.67;100.00
4814;BME280;15375;48.540;9.268;2023-01-27T06:31:11;97554.47;;;-1.55;100.00
4814;BME280;15375;48.540;9.268;2023-01-27T06:33:37;97523.09;;;-1.78;100.00
4814;BME280;15375;48.540;9.268;2023-01-27T06:36:06;97540.06;;;-1.74;100.00
4814;BME280;15375;48.540;9.268;2023-01-27T06:38:32;97537.63;;;-1.67;100.00
4814;BME280;15375;48.540;9.268;2023-01-27T06:40:58;97535.38;;;-1.65;100.00
4814;BME280;15375;48.540;9.268;2023-01-27T06:43:24;97507.41;;;-1.80;100.00
4814;BME280;15375;48.540;9.268;2023-01-27T06:45:50;97529.81;;;-1.72;100.00
4814;BME280;15375;48.540;9.268;2023-01-27T06:48:15;97513.41;;;-1.95;100.00
4814;BME280;15375;48.540;9.268;2023-01-27T06:50:41;97535.16;;;-1.84;100.00
4814;BME280;15375;48.540;9.268;2023-01-27T06:53:06;97566.34;;;-1.76;100.00
4814;BME280;15375;48.540;9.268;2023-01-27T06:55:33;97569.56;;;-1.71;100.00
4814;BME280;15375;48.540;9.268;2023-01-27T06:58:02;97556.84;;;-1.86;100.00
4814;BME280;15375;48.540;9.268;2023-01-27T07:00:28;97593.56;;;-1.62;100.00
4814;BME280;15375;48.540;9.268;2023-01-27T07:02:54;97593.78;;;-1.67;100.00
4814;BME280;15375;48.540;9.268;2023-01-27T07:05:20;97526.97;;;-2.12;100.00
4814;BME280;15375;48.540;9.268;2023-01-27T07:07:45;97539.53;;;-2.13;100.00
4814;BME280;15375;48.540;9.268;2023-01-27T07:10:11;97516.69;;;-2.22;100.00
4814;BME280;15375;48.540;9.268;2023-01-27T07:12:36;97561.06;;;-1.97;100.00
4814;BME280;15375;48.540;9.268;2023-01-27T07:15:06;97518.50;;;-2.14;100.00
4814;BME280;15375;48.540;9.268;2023-01-27T07:17:32;97587.97;;;-1.81;100.00
4814;BME280;15375;48.540;9.268;2023-01-27T07:19:57;97601.44;;;-1.78;100.00
4814;BME280;15375;48.540;9.268;2023-01-27T07:22:22;97610.09;;;-1.81;100.00
4814;BME280;15375;48.540;9.268;2023-01-27T07:24:48;97621.75;;;-1.65;100.00
4814;BME280;15375;48.540;9.268;2023-01-27T07:27:14;97516.91;;;-2.27;100.00
4814;BME280;15375;48.540;9.268;2023-01-27T07:29:39;97591.28;;;-1.84;100.00
4814;BME280;15375;48.540;9.268;2023-01-27T07:32:04;97544.94;;;-2.21;100.00
4814;BME280;15375;48.540;9.268;2023-01-27T07:34:30;97568.47;;;-2.15;100.00
4814;BME280;15375;48.540;9.268;2023-01-27T07:36:55;97626.41;;;-1.74;100.00
4814;BME280;15375;48.540;9.268;2023-01-27T07:39:21;97595.72;;;-1.88;100.00
4814;BME280;15375;48.540;9.268;2023-01-27T07:41:47;97632.56;;;-1.61;100.00
4814;BME280;15375;48.540;9.268;2023-01-27T07:44:13;97587.69;;;-1.88;100.00
4814;BME280;15375;48.540;9.268;2023-01-27T07:46:38;97630.88;;;-1.66;100.00
4814;BME280;15375;48.540;9.268;2023-01-27T07:49:04;97586.34;;;-1.95;100.00
4814;BME280;15375;48.540;9.268;2023-01-27T07:51:29;97595.06;;;-1.85;100.00
4814;BME280;15375;48.540;9.268;2023-01-27T07:53:54;97591.81;;;-1.91;100.00
4814;BME280;15375;48.540;9.268;2023-01-27T07:56:20;97628.41;;;-1.71;100.00
4814;BME280;15375;48.540;9.268;2023-01-27T07:58:45;97628.50;;;-1.79;100.00
4814;BME280;15375;48.540;9.268;2023-01-27T08:01:11;97616.44;;;-1.85;100.00
4814;BME280;15375;48.540;9.268;2023-01-27T08:03:37;97593.94;;;-1.97;100.00
4814;BME280;15375;48.540;9.268;2023-01-27T08:06:07;97604.06;;;-1.90;100.00
4814;BME280;15375;48.540;9.268;2023-01-27T08:08:33;97590.78;;;-1.99;100.00
4814;BME280;15375;48.540;9.268;2023-01-27T08:11:03;97613.25;;;-1.79;100.00
4814;BME280;15375;48.540;9.268;2023-01-27T08:13:29;97633.75;;;-1.71;100.00
4814;BME280;15375;48.540;9.268;2023-01-27T08:16:00;97635.31;;;-1.70;100.00
4814;BME280;15375;48.540;9.268;2023-01-27T08:18:27;97638.13;;;-1.66;100.00
4814;BME280;15375;48.540;9.268;2023-01-27T08:20:54;97607.44;;;-1.81;100.00
4814;BME280;15375;48.540;9.268;2023-01-27T08:23:20;97609.00;;;-1.80;100.00
4814;BME280;15375;48.540;9.268;2023-01-27T08:25:55;97640.19;;;-1.51;100.00
4814;BME280;15375;48.540;9.268;2023-01-27T08:28:22;97657.66;;;-1.54;100.00
4814;BME280;15375;48.540;9.268;2023-01-27T08:30:48;97649.94;;;-1.55;100.00
4814;BME280;15375;48.540;9.268;2023-01-27T08:33:20;97645.59;;;-1.60;100.00
4814;BME280;15375;48.540;9.268;2023-01-27T08:35:45;97608.88;;;-1.83;100.00
4814;BME280;15375;48.540;9.268;2023-01-27T08:38:12;97641.16;;;-1.56;100.00
4814;BME280;15375;48.540;9.268;2023-01-27T08:40:38;97659.78;;;-1.47;100.00
4814;BME280;15375;48.540;9.268;2023-01-27T08:43:04;97635.59;;;-1.51;100.00
4814;BME280;15375;48.540;9.268;2023-01-27T08:45:30;97633.22;;;-1.64;100.00
4814;BME280;15375;48.540;9.268;2023-01-27T08:47:55;97657.75;;;-1.50;100.00
4814;BME280;15375;48.540;9.268;2023-01-27T08:50:20;97637.94;;;-1.61;100.00
4814;BME280;15375;48.540;9.268;2023-01-27T08:52:46;97652.97;;;-1.57;100.00
4814;BME280;15375;48.540;9.268;2023-01-27T08:55:11;97632.66;;;-1.70;100.00
4814;BME280;15375;48.540;9.268;2023-01-27T08:57:36;97647.28;;;-1.55;100.00
4814;BME280;15375;48.540;9.268;2023-01-27T09:00:03;97637.34;;;-1.67;100.00
4814;BME280;15375;48.540;9.268;2023-01-27T09:02:29;97665.00;;;-1.51;100.00
4814;BME280;15375;48.540;9.268;2023-01-27T09:04:54;97647.91;;;-1.70;100.00
4814;BME280;15375;48.540;9.268;2023-01-27T09:07:20;97641.69;;;-1.62;100.00
4814;BME280;15375;48.540;9.268;2023-01-27T09:09:46;97574.50;;;-2.06;100.00
4814;BME280;15375;48.540;9.268;2023-01-27T09:12:12;97627.88;;;-1.64;100.00
4814;BME280;15375;48.540;9.268;2023-01-27T09:14:37;97591.50;;;-1.89;100.00
4814;BME280;15375;48.540;9.268;2023-01-27T09:17:02;97638.81;;;-1.57;100.00
4814;BME280;15375;48.540;9.268;2023-01-27T09:19:28;97665.50;;;-1.37;100.00
4814;BME280;15375;48.540;9.268;2023-01-27T09:21:53;97650.91;;;-1.39;100.00
4814;BME280;15375;48.540;9.268;2023-01-27T09:24:18;97647.34;;;-1.31;100.00
4814;BME280;15375;48.540;9.268;2023-01-27T09:26:44;97628.16;;;-1.33;100.00
4814;BME280;15375;48.540;9.268;2023-01-27T09:29:10;97607.38;;;-1.60;100.00
4814;BME280;15375;48.540;9.268;2023-01-27T09:31:36;97633.94;;;-1.43;100.00
4814;BME280;15375;48.540;9.268;2023-01-27T09:34:01;97625.91;;;-1.43;100.00
4814;BME280;15375;48.540;9.268;2023-01-27T09:36:27;97652.72;;;-1.19;100.00
4814;BME280;15375;48.540;9.268;2023-01-27T09:39:00;97623.00;;;-1.38;100.00
4814;BME280;15375;48.540;9.268;2023-01-27T09:44:22;97659.66;;;-1.06;100.00
4814;BME280;15375;48.540;9.268;2023-01-27T09:49:55;97664.00;;;-1.01;100.00
4814;BME280;15375;48.540;9.268;2023-01-27T09:52:48;97644.25;;;-1.09;100.00
4814;BME280;15375;48.540;9.268;2023-01-27T09:58:18;97665.88;;;-1.02;100.00
4814;BME280;15375;48.540;9.268;2023-01-27T10:08:45;97669.44;;;-1.10;100.00
4814;BME280;15375;48.540;9.268;2023-01-27T10:17:02;97682.25;;;-1.15;100.00
4814;BME280;15375;48.540;9.268;2023-01-27T10:19:58;97682.94;;;-1.18;100.00
4814;BME280;15375;48.540;9.268;2023-01-27T10:22:45;97680.56;;;-1.20;100.00
4814;BME280;15375;48.540;9.268;2023-01-27T10:25:36;97699.53;;;-1.13;100.00
4814;BME280;15375;48.540;9.268;2023-01-27T10:28:10;97691.84;;;-1.14;100.00
4814;BME280;15375;48.540;9.268;2023-01-27T10:30:37;97670.28;;;-1.30;100.00
4814;BME280;15375;48.540;9.268;2023-01-27T10:33:16;97666.38;;;-1.33;100.00
4814;BME280;15375;48.540;9.268;2023-01-27T10:38:45;97686.34;;;-1.30;100.00
4814;BME280;15375;48.540;9.268;2023-01-27T10:41:24;97671.38;;;-1.43;100.00
4814;BME280;15375;48.540;9.268;2023-01-27T10:49:46;97633.69;;;-1.62;100.00
4814;BME280;15375;48.540;9.268;2023-01-27T10:52:20;97663.56;;;-1.48;100.00
4814;BME280;15375;48.540;9.268;2023-01-27T10:54:57;97682.88;;;-1.31;100.00
4814;BME280;15375;48.540;9.268;2023-01-27T10:57:44;97652.41;;;-1.50;100.00
4814;BME280;15375;48.540;9.268;2023-01-27T11:00:31;97662.22;;;-1.54;100.00
4814;BME280;15375;48.540;9.268;2023-01-27T11:05:39;97686.13;;;-1.25;100.00
4814;BME280;15375;48.540;9.268;2023-01-27T11:08:13;97691.28;;;-1.20;100.00
4814;BME280;15375;48.540;9.268;2023-01-27T11:10:47;97663.84;;;-1.29;100.00
4814;BME280;15375;48.540;9.268;2023-01-27T11:13:32;97695.97;;;-1.05;100.00
4814;BME280;15375;48.540;9.268;2023-01-27T11:16:01;97696.44;;;-1.03;100.00
4814;BME280;15375;48.540;9.268;2023-01-27T11:18:30;97675.22;;;-1.20;100.00
4814;BME280;15375;48.540;9.268;2023-01-27T11:21:09;97669.88;;;-1.20;100.00
4814;BME280;15375;48.540;9.268;2023-01-27T11:23:41;97688.72;;;-1.16;100.00
4814;BME280;15375;48.540;9.268;2023-01-27T11:26:34;97684.47;;;-1.17;100.00
4814;BME280;15375;48.540;9.268;2023-01-27T11:29:38;97688.63;;;-1.08;100.00
4814;BME280;15375;48.540;9.268;2023-01-27T11:32:37;97683.31;;;-0.96;100.00
4814;BME280;15375;48.540;9.268;2023-01-27T11:35:14;97670.66;;;-0.95;100.00
4814;BME280;15375;48.540;9.268;2023-01-27T11:37:50;97653.06;;;-0.96;100.00
4814;BME280;15375;48.540;9.268;2023-01-27T11:40:34;97653.16;;;-0.93;100.00
4814;BME280;15375;48.540;9.268;2023-01-27T11:43:02;97645.47;;;-0.94;100.00
4814;BME280;15375;48.540;9.268;2023-01-27T11:45:32;97660.19;;;-0.76;100.00
4814;BME280;15375;48.540;9.268;2023-01-27T11:47:59;97649.16;;;-0.87;100.00
4814;BME280;15375;48.540;9.268;2023-01-27T11:50:29;97652.16;;;-0.76;100.00
4814;BME280;15375;48.540;9.268;2023-01-27T11:53:05;97639.09;;;-0.66;100.00
4814;BME280;15375;48.540;9.268;2023-01-27T11:55:37;97614.00;;;-0.85;100.00
4814;BME280;15375;48.540;9.268;2023-01-27T12:00:53;97629.06;;;-0.69;100.00
4814;BME280;15375;48.540;9.268;2023-01-27T12:03:48;97629.97;;;-0.77;100.00
4814;BME280;15375;48.540;9.268;2023-01-27T12:06:26;97645.78;;;-0.59;100.00
4814;BME280;15375;48.540;9.268;2023-01-27T12:08:55;97636.41;;;-0.53;100.00
4814;BME280;15375;48.540;9.268;2023-01-27T12:11:26;97544.66;;;-1.14;100.00
4814;BME280;15375;48.540;9.268;2023-01-27T12:13:57;97641.38;;;-0.40;100.00
4814;BME280;15375;48.540;9.268;2023-01-27T12:19:26;97638.16;;;-0.33;100.00
4814;BME280;15375;48.540;9.268;2023-01-27T12:21:56;97643.09;;;-0.47;100.00
4814;BME280;15375;48.540;9.268;2023-01-27T12:24:35;97606.19;;;-0.66;100.00
4814;BME280;15375;48.540;9.268;2023-01-27T12:27:03;97619.31;;;-0.49;100.00
4814;BME280;15375;48.540;9.268;2023-01-27T12:29:53;97644.78;;;-0.43;100.00
4814;BME280;15375;48.540;9.268;2023-01-27T12:32:35;97635.16;;;-0.44;100.00
4814;BME280;15375;48.540;9.268;2023-01-27T12:35:02;97629.69;;;-0.47;100.00
4814;BME280;15375;48.540;9.268;2023-01-27T12:37:33;97619.97;;;-0.52;100.00
4814;BME280;15375;48.540;9.268;2023-01-27T12:40:02;97633.94;;;-0.46;100.00
4814;BME280;15375;48.540;9.268;2023-01-27T12:42:41;97636.50;;;-0.38;100.00
4814;BME280;15375;48.540;9.268;2023-01-27T12:50:52;97641.09;;;-0.50;100.00
4814;BME280;15375;48.540;9.268;2023-01-27T12:53:20;97632.63;;;-0.65;100.00
4814;BME280;15375;48.540;9.268;2023-01-27T12:58:31;97622.81;;;-0.60;100.00
4814;BME280;15375;48.540;9.268;2023-01-27T13:00:59;97616.44;;;-0.56;100.00
4814;BME280;15375;48.540;9.268;2023-01-27T13:03:26;97598.16;;;-0.66;100.00
4814;BME280;15375;48.540;9.268;2023-01-27T13:05:54;97618.53;;;-0.49;100.00
4814;BME280;15375;48.540;9.268;2023-01-27T13:08:21;97619.88;;;-0.43;100.00
4814;BME280;15375;48.540;9.268;2023-01-27T13:10:54;97618.28;;;-0.44;100.00
4814;BME280;15375;48.540;9.268;2023-01-27T13:13:24;97609.50;;;-0.57;100.00
4814;BME280;15375;48.540;9.268;2023-01-27T13:15:51;97605.72;;;-0.56;100.00
4814;BME280;15375;48.540;9.268;2023-01-27T13:18:19;97613.84;;;-0.52;100.00
4814;BME280;15375;48.540;9.268;2023-01-27T13:20:50;97616.88;;;-0.54;100.00
4814;BME280;15375;48.540;9.268;2023-01-27T13:23:21;97600.28;;;-0.72;100.00
4814;BME280;15375;48.540;9.268;2023-01-27T13:26:01;97605.81;;;-0.52;100.00
4814;BME280;15375;48.540;9.268;2023-01-27T13:28:40;97633.47;;;-0.36;100.00
4814;BME280;15375;48.540;9.268;2023-01-27T13:31:13;97603.25;;;-0.49;100.00
4814;BME280;15375;48.540;9.268;2023-01-27T13:33:47;97619.16;;;-0.28;100.00
4814;BME280;15375;48.540;9.268;2023-01-27T13:36:34;97613.59;;;-0.35;100.00
4814;BME280;15375;48.540;9.268;2023-01-27T13:41:45;97607.56;;;-0.44;100.00
4814;BME280;15375;48.540;9.268;2023-01-27T13:44:21;97632.44;;;-0.32;100.00
4814;BME280;15375;48.540;9.268;2023-01-27T13:46:49;97624.63;;;-0.37;100.00
4814;BME280;15375;48.540;9.268;2023-01-27T13:49:31;97631.91;;;-0.37;100.00
4814;BME280;15375;48.540;9.268;2023-01-27T13:51:58;97641.16;;;-0.35;100.00
4814;BME280;15375;48.540;9.268;2023-01-27T13:54:24;97626.34;;;-0.44;100.00
4814;BME280;15375;48.540;9.268;2023-01-27T14:03:02;97659.34;;;-0.28;100.00
4814;BME280;15375;48.540;9.268;2023-01-27T14:10:40;97658.69;;;-0.37;100.00
4814;BME280;15375;48.540;9.268;2023-01-27T14:13:29;97673.66;;;-0.36;100.00
4814;BME280;15375;48.540;9.268;2023-01-27T14:16:07;97674.00;;;-0.38;100.00
4814;BME280;15375;48.540;9.268;2023-01-27T14:18:40;97642.78;;;-0.58;100.00